Time;durP1;ratioP1;P1;durP2;ratioP2;P2;SDS_P1;SDS_P2;PMS_P1;PMS_P2;Temp;Humidity;BMP_temperature;BMP_pressure;BME280_temperature;BME280_humidity;BME280_pressure;Samples;Min_cycle;Max_cycle;Signal;HPM_P1;HPM_P2
2023/01/29 00:01:27;;;;;;;4.38;2.47;;;0.10;95.10;;;;;;5088567;28;20103;-59
2023/01/29 00:03:53;;;;;;;10.20;3.65;;;0.10;95.10;;;;;;5108325;28;20055;-60
2023/01/29 00:06:18;;;;;;;9.43;3.40;;;0.10;94.90;;;;;;5083445;28;20028;-59
2023/01/29 00:08:44;;;;;;;5.95;2.60;;;0.20;94.90;;;;;;5108107;28;20023;-59
2023/01/29 00:11:09;;;;;;;6.55;3.70;;;0.20;94.70;;;;;;5088571;28;20069;-59
2023/01/29 00:13:35;;;;;;;4.70;3.08;;;0.20;94.30;;;;;;5109500;28;20039;-59
2023/01/29 00:16:01;;;;;;;5.55;3.63;;;0.20;94.40;;;;;;5098321;28;20032;-59
2023/01/29 00:18:28;;;;;;;5.85;2.80;;;0.20;94.00;;;;;;5090166;28;20028;-61
2023/01/29 00:20:54;;;;;;;5.85;3.17;;;0.30;94.10;;;;;;5098379;28;20062;-60
2023/01/29 00:23:20;;;;;;;8.93;4.05;;;0.30;94.00;;;;;;5109129;28;20063;-60
2023/01/29 00:25:46;;;;;;;5.47;3.30;;;0.30;94.00;;;;;;5088127;28;20063;-60
2023/01/29 00:28:12;;;;;;;7.97;3.28;;;0.30;94.20;;;;;;5108922;28;20043;-60
2023/01/29 00:30:38;;;;;;;4.97;2.97;;;0.40;94.40;;;;;;5087875;28;20085;-60
2023/01/29 00:33:04;;;;;;;7.10;3.50;;;0.40;94.30;;;;;;5089421;28;20032;-60
2023/01/29 00:35:30;;;;;;;8.30;3.38;;;0.40;94.00;;;;;;5101166;28;20032;-60
2023/01/29 00:37:56;;;;;;;5.40;3.63;;;0.40;93.90;;;;;;5087243;28;20397;-60
2023/01/29 00:40:22;;;;;;;6.00;3.40;;;0.50;93.90;;;;;;5109019;28;20031;-60
2023/01/29 00:45:32;;;;;;;7.95;3.67;;;0.50;93.50;;;;;;5089716;28;20497;-60
2023/01/29 00:47:58;;;;;;;6.70;4.55;;;0.50;93.20;;;;;;5090934;28;20430;-58
2023/01/29 00:50:24;;;;;;;7.03;4.57;;;0.50;93.30;;;;;;5108824;28;20038;-59
2023/01/29 00:52:51;;;;;;;9.93;4.82;;;0.50;93.50;;;;;;5087846;28;20062;-59
2023/01/29 00:55:17;;;;;;;10.25;5.53;;;0.50;93.60;;;;;;5108854;28;20132;-60
2023/01/29 00:57:43;;;;;;;7.13;5.07;;;0.50;93.40;;;;;;5087297;28;20500;-60
2023/01/29 01:00:13;;;;;;;7.28;4.38;;;0.50;93.50;;;;;;5108464;28;20034;-59
2023/01/29 01:05:23;;;;;;;7.45;4.45;;;0.60;93.70;;;;;;5077456;28;20071;-64
2023/01/29 01:07:52;;;;;;;8.55;4.72;;;0.60;93.30;;;;;;5087538;28;20063;-65
2023/01/29 01:10:29;;;;;;;7.07;4.75;;;0.60;93.40;;;;;;5113246;28;20039;-64
2023/01/29 01:12:57;;;;;;;6.93;5.32;;;0.60;93.50;;;;;;5086716;28;20028;-64
2023/01/29 01:15:24;;;;;;;9.52;5.40;;;0.60;93.70;;;;;;5112936;28;20028;-60
2023/01/29 01:17:52;;;;;;;10.00;5.00;;;0.60;93.80;;;;;;5091319;28;20084;-60
2023/01/29 01:20:18;;;;;;;9.27;4.72;;;0.60;93.80;;;;;;5112868;28;20023;-59
2023/01/29 01:22:43;;;;;;;9.43;5.32;;;0.70;93.60;;;;;;5091634;28;20437;-60
2023/01/29 01:25:09;;;;;;;12.93;5.60;;;0.70;93.90;;;;;;5112387;28;20016;-59
2023/01/29 01:27:39;;;;;;;7.82;5.60;;;0.70;94.00;;;;;;5091405;28;20028;-60
2023/01/29 01:30:12;;;;;;;11.40;5.93;;;0.70;93.80;;;;;;5072507;28;20109;-60
2023/01/29 01:32:38;;;;;;;11.50;5.53;;;0.70;93.60;;;;;;5083859;28;20053;-59
2023/01/29 01:35:04;;;;;;;10.00;5.20;;;0.80;93.90;;;;;;5112349;28;20447;-59
2023/01/29 01:37:30;;;;;;;8.18;4.30;;;0.80;94.00;;;;;;5090951;28;20128;-60
2023/01/29 01:39:56;;;;;;;9.25;5.18;;;0.80;94.00;;;;;;5112158;28;20058;-61
2023/01/29 01:42:28;;;;;;;8.82;5.30;;;0.80;93.80;;;;;;5090947;28;20107;-59
2023/01/29 01:45:00;;;;;;;9.65;5.38;;;0.80;93.70;;;;;;5072267;28;20623;-60
2023/01/29 01:47:41;;;;;;;11.63;5.55;;;0.80;93.80;;;;;;5082072;28;20030;-60
2023/01/29 01:50:27;;;;;;;8.75;5.22;;;0.80;93.60;;;;;;5092243;28;20034;-61
2023/01/29 01:52:59;;;;;;;10.27;5.82;;;0.80;93.80;;;;;;5086095;28;20038;-61
2023/01/29 01:55:28;;;;;;;8.57;4.85;;;0.80;93.80;;;;;;5070876;28;20089;-61
2023/01/29 01:57:58;;;;;;;12.02;6.05;;;0.90;93.80;;;;;;5094044;28;20039;-61
2023/01/29 02:00:25;;;;;;;9.75;5.10;;;0.90;93.80;;;;;;5071990;28;20044;-61
2023/01/29 02:11:16;;;;;;;9.95;5.90;;;0.90;94.00;;;;;;5070624;28;20132;-65
2023/01/29 02:13:41;;;;;;;9.65;5.45;;;0.90;93.90;;;;;;5106495;28;20059;-65
2023/01/29 02:16:07;;;;;;;13.23;6.68;;;0.90;93.60;;;;;;5091779;28;20063;-59
2023/01/29 02:18:36;;;;;;;11.90;6.10;;;0.90;93.60;;;;;;5108308;28;20501;-59
2023/01/29 02:21:24;;;;;;;12.40;6.78;;;0.90;93.90;;;;;;5090148;28;20024;-57
2023/01/29 02:24:14;;;;;;;9.63;6.40;;;0.90;93.70;;;;;;5073052;28;20024;-59
2023/01/29 02:26:52;;;;;;;11.65;6.25;;;0.90;93.80;;;;;;5091781;28;20028;-58
2023/01/29 02:29:26;;;;;;;13.13;5.95;;;0.80;94.10;;;;;;5102229;28;20044;-59
2023/01/29 02:32:19;;;;;;;11.55;7.28;;;0.80;94.10;;;;;;5102981;28;20048;-58
2023/01/29 02:37:59;;;;;;;10.80;6.28;;;0.80;94.50;;;;;;5071133;28;20179;-59
2023/01/29 02:40:36;;;;;;;11.02;6.65;;;0.80;94.60;;;;;;5086225;28;20535;-59
2023/01/29 02:43:30;;;;;;;10.88;6.55;;;0.90;94.70;;;;;;5071189;28;20028;-59
2023/01/29 02:46:02;;;;;;;11.38;6.68;;;0.90;94.80;;;;;;5071057;28;20024;-58
2023/01/29 02:48:37;;;;;;;12.07;6.55;;;0.90;95.00;;;;;;5069639;28;20063;-59
2023/01/29 02:51:14;;;;;;;11.00;7.00;;;0.80;94.90;;;;;;5091224;28;20020;-60
2023/01/29 02:53:54;;;;;;;15.05;7.63;;;0.90;95.20;;;;;;5071178;28;20031;-59
2023/01/29 02:56:27;;;;;;;14.80;8.55;;;0.90;95.20;;;;;;5091029;28;20031;-60
2023/01/29 02:59:00;;;;;;;14.07;7.60;;;0.90;95.30;;;;;;5073111;28;20571;-59
2023/01/29 03:01:39;;;;;;;13.63;7.00;;;0.90;95.20;;;;;;5091020;28;20017;-59
2023/01/29 03:04:11;;;;;;;12.65;7.20;;;0.90;95.30;;;;;;5074473;28;20059;-60
2023/01/29 03:06:45;;;;;;;9.43;6.18;;;0.90;95.40;;;;;;5085791;28;20020;-60
2023/01/29 03:09:23;;;;;;;11.88;6.97;;;0.90;95.60;;;;;;5075171;28;20047;-60
2023/01/29 03:11:53;;;;;;;12.60;7.18;;;0.90;95.70;;;;;;5090854;28;20038;-60
2023/01/29 03:15:10;;;;;;;14.90;7.45;;;0.90;95.60;;;;;;5076431;28;20115;-60
2023/01/29 03:17:14;;;;;;;15.98;7.78;;;0.90;95.70;;;;;;5070166;28;20120;-60
2023/01/29 03:19:45;;;;;;;13.77;7.97;;;0.90;95.70;;;;;;5097188;28;20118;-60
2023/01/29 03:22:15;;;;;;;14.02;7.57;;;0.90;95.90;;;;;;5070395;28;20462;-58
2023/01/29 03:33:13;;;;;;;15.75;8.50;;;0.80;96.10;;;;;;5070375;28;20078;-58
2023/01/29 03:35:59;;;;;;;15.88;8.50;;;0.80;96.30;;;;;;5089573;28;20040;-59
2023/01/29 03:38:30;;;;;;;15.38;8.40;;;0.80;96.50;;;;;;5090275;28;20419;-60
2023/01/29 03:41:04;;;;;;;16.17;9.30;;;0.80;96.70;;;;;;5069989;28;20036;-60
2023/01/29 03:43:55;;;;;;;16.95;7.97;;;0.80;96.80;;;;;;5069752;28;20473;-60
2023/01/29 03:46:28;;;;;;;14.25;7.95;;;0.90;96.90;;;;;;5074166;28;20027;-60
2023/01/29 03:49:11;;;;;;;15.15;8.55;;;0.90;96.90;;;;;;5110407;28;20106;-60
2023/01/29 03:52:14;;;;;;;13.40;7.47;;;0.90;97.00;;;;;;5078461;28;20611;-60
2023/01/29 03:54:56;;;;;;;18.08;8.98;;;0.90;97.00;;;;;;5110271;28;20047;-59
2023/01/29 03:57:37;;;;;;;14.55;8.48;;;0.90;97.00;;;;;;5091111;28;20036;-59
2023/01/29 04:00:26;;;;;;;13.65;7.90;;;0.80;97.10;;;;;;5069470;28;20032;-59
2023/01/29 04:03:06;;;;;;;15.63;8.18;;;0.90;97.10;;;;;;5083519;28;20040;-60
2023/01/29 04:05:41;;;;;;;15.10;8.52;;;0.90;97.10;;;;;;5091310;28;20062;-59
2023/01/29 04:08:11;;;;;;;15.87;7.83;;;0.90;97.10;;;;;;5085522;28;20043;-59
2023/01/29 04:10:39;;;;;;;14.65;8.05;;;0.90;97.10;;;;;;5069652;28;20043;-60
2023/01/29 04:13:09;;;;;;;15.50;7.97;;;0.90;97.10;;;;;;5089479;28;20027;-60
2023/01/29 04:15:44;;;;;;;16.38;8.82;;;0.90;97.20;;;;;;5109584;28;20480;-60
2023/01/29 04:18:10;;;;;;;13.98;8.40;;;0.90;97.20;;;;;;5085741;28;20039;-60
2023/01/29 04:20:36;;;;;;;14.90;8.48;;;0.90;97.10;;;;;;5108985;28;20084;-59
2023/01/29 04:23:05;;;;;;;15.15;8.73;;;0.90;97.50;;;;;;5087974;28;20114;-60
2023/01/29 04:25:50;;;;;;;15.00;8.82;;;0.90;97.50;;;;;;5109357;28;20032;-59
2023/01/29 04:28:24;;;;;;;14.32;8.45;;;1.00;97.50;;;;;;5086222;28;20139;-59
2023/01/29 04:30:58;;;;;;;15.23;8.55;;;1.00;97.50;;;;;;5106558;28;20040;-60
2023/01/29 04:33:39;;;;;;;15.05;9.30;;;1.00;97.50;;;;;;5087606;28;20036;-60
2023/01/29 04:36:26;;;;;;;13.27;8.32;;;1.00;97.40;;;;;;5087228;28;20047;-61
2023/01/29 04:39:24;;;;;;;15.40;8.70;;;1.00;97.40;;;;;;5089529;28;20416;-59
2023/01/29 04:42:05;;;;;;;17.10;8.55;;;1.00;97.10;;;;;;5074149;28;20026;-59
2023/01/29 04:44:46;;;;;;;15.80;8.60;;;1.10;97.20;;;;;;5088810;28;20023;-60
2023/01/29 04:47:33;;;;;;;15.45;8.27;;;1.10;97.10;;;;;;5077172;28;20032;-60
2023/01/29 04:50:13;;;;;;;16.05;8.20;;;1.10;97.20;;;;;;5069071;28;20488;-60
2023/01/29 04:52:56;;;;;;;13.75;8.35;;;1.10;97.50;;;;;;5081002;28;20392;-60
2023/01/29 04:55:46;;;;;;;14.07;7.93;;;1.10;97.60;;;;;;5069113;28;20174;-60
2023/01/29 04:58:15;;;;;;;20.58;8.93;;;1.10;97.70;;;;;;5088348;28;20052;-60
2023/01/29 05:00:47;;;;;;;12.88;7.80;;;1.10;98.00;;;;;;5109302;28;20414;-60
2023/01/29 05:03:15;;;;;;;17.13;8.70;;;1.10;98.20;;;;;;5087246;28;20039;-60
2023/01/29 05:05:44;;;;;;;16.80;9.32;;;1.10;98.50;;;;;;5093623;28;20028;-60
2023/01/29 05:08:12;;;;;;;14.82;8.48;;;1.10;98.80;;;;;;5089300;28;20032;-60
2023/01/29 05:10:38;;;;;;;14.05;8.13;;;1.10;98.90;;;;;;5109029;28;20039;-60
2023/01/29 05:13:07;;;;;;;17.80;9.18;;;1.10;98.80;;;;;;5087660;28;20031;-59
2023/01/29 05:15:37;;;;;;;14.75;8.77;;;1.10;99.10;;;;;;5109114;28;20078;-60
2023/01/29 05:18:07;;;;;;;15.75;8.82;;;1.10;99.40;;;;;;5083938;28;20040;-60
2023/01/29 05:20:35;;;;;;;17.27;9.68;;;1.10;99.90;;;;;;5109276;28;20495;-61
2023/01/29 05:23:01;;;;;;;17.23;9.13;;;1.10;99.90;;;;;;5087288;28;20032;-60
2023/01/29 05:25:31;;;;;;;15.88;9.00;;;1.10;99.90;;;;;;5108655;28;20028;-59
2023/01/29 05:28:04;;;;;;;16.73;9.80;;;1.10;99.90;;;;;;5083124;28;20055;-60
2023/01/29 05:30:33;;;;;;;14.85;8.77;;;1.10;99.90;;;;;;5068596;28;20515;-60
2023/01/29 05:32:59;;;;;;;19.23;9.93;;;1.10;99.90;;;;;;5090774;28;20036;-60
2023/01/29 05:35:26;;;;;;;18.92;10.18;;;1.00;99.90;;;;;;5108457;28;20024;-59
2023/01/29 05:37:52;;;;;;;20.33;10.68;;;1.00;99.90;;;;;;5086990;28;20040;-60
2023/01/29 05:40:17;;;;;;;21.08;11.48;;;1.00;99.90;;;;;;5108375;28;20035;-61
2023/01/29 05:42:43;;;;;;;22.42;11.05;;;1.00;99.90;;;;;;5087370;28;20077;-60
2023/01/29 05:45:08;;;;;;;21.83;10.38;;;1.00;99.90;;;;;;5108317;28;20136;-60
2023/01/29 05:47:35;;;;;;;17.98;10.45;;;1.00;99.90;;;;;;5087325;28;20048;-60
2023/01/29 05:50:00;;;;;;;16.48;10.27;;;1.00;99.90;;;;;;5108265;28;20042;-60
2023/01/29 05:52:26;;;;;;;17.92;9.80;;;1.00;99.90;;;;;;5087445;28;20028;-61
2023/01/29 05:54:51;;;;;;;24.65;10.88;;;1.00;99.90;;;;;;5109948;28;20483;-60
2023/01/29 05:57:17;;;;;;;19.05;9.57;;;1.00;99.90;;;;;;5090894;28;20050;-60
2023/01/29 05:59:42;;;;;;;19.73;10.73;;;1.00;99.90;;;;;;5111988;28;20031;-59
2023/01/29 06:02:08;;;;;;;16.98;9.52;;;1.00;99.90;;;;;;5090967;28;20494;-60
2023/01/29 06:04:33;;;;;;;18.88;10.55;;;1.00;99.90;;;;;;5109500;28;20054;-61
2023/01/29 06:07:00;;;;;;;18.75;10.57;;;1.00;99.90;;;;;;5086716;28;20028;-59
2023/01/29 06:09:25;;;;;;;19.33;10.45;;;1.00;99.90;;;;;;5111969;28;20020;-59
2023/01/29 06:11:51;;;;;;;19.52;10.23;;;1.00;99.90;;;;;;5090637;28;20066;-59
2023/01/29 06:14:16;;;;;;;15.60;8.73;;;1.00;99.90;;;;;;5092042;28;20103;-61
2023/01/29 06:16:41;;;;;;;22.40;9.95;;;1.10;99.90;;;;;;5103857;28;20606;-60
2023/01/29 06:19:07;;;;;;;20.00;11.45;;;1.00;99.90;;;;;;5091989;28;20066;-61
2023/01/29 06:21:32;;;;;;;20.65;10.38;;;1.10;99.90;;;;;;5105034;28;20032;-61
2023/01/29 06:23:58;;;;;;;19.60;11.65;;;1.10;99.90;;;;;;5092055;28;20116;-60
2023/01/29 06:26:23;;;;;;;21.27;10.98;;;1.10;99.90;;;;;;5106228;28;20036;-60
2023/01/29 06:28:49;;;;;;;22.23;11.90;;;1.10;99.90;;;;;;5091843;28;20032;-61
2023/01/29 06:31:15;;;;;;;24.13;12.68;;;1.10;99.90;;;;;;5102805;28;20566;-61
2023/01/29 06:33:40;;;;;;;17.75;10.25;;;1.10;99.90;;;;;;5091745;28;20035;-60
2023/01/29 06:36:06;;;;;;;19.88;10.02;;;1.10;99.90;;;;;;5108353;28;20066;-60
2023/01/29 06:38:31;;;;;;;18.70;10.32;;;1.10;99.90;;;;;;5091683;28;20103;-60
2023/01/29 06:40:57;;;;;;;27.92;12.25;;;1.10;99.90;;;;;;5111228;28;20035;-60
2023/01/29 06:43:23;;;;;;;24.75;11.90;;;1.10;99.90;;;;;;5082038;28;20858;-61
2023/01/29 06:45:54;;;;;;;25.15;12.18;;;1.10;99.90;;;;;;5086056;28;20039;-60
2023/01/29 06:48:21;;;;;;;22.73;12.38;;;1.10;99.90;;;;;;5098327;28;20034;-60
2023/01/29 06:50:48;;;;;;;20.30;11.52;;;1.10;99.90;;;;;;5089491;28;20200;-61
2023/01/29 06:53:14;;;;;;;21.85;12.35;;;1.10;99.90;;;;;;5095826;28;20039;-61
2023/01/29 06:55:40;;;;;;;21.77;11.18;;;1.10;99.90;;;;;;5107839;28;20120;-61
2023/01/29 06:58:10;;;;;;;23.30;11.50;;;1.10;99.90;;;;;;5093936;27;20075;-61
2023/01/29 07:00:36;;;;;;;19.90;11.18;;;1.10;99.90;;;;;;5078226;28;20047;-61
2023/01/29 07:03:03;;;;;;;25.25;11.93;;;1.20;99.90;;;;;;5091140;28;20034;-60
2023/01/29 07:05:30;;;;;;;20.73;11.07;;;1.20;99.90;;;;;;5094216;28;20046;-61
2023/01/29 07:07:55;;;;;;;18.67;11.27;;;1.20;99.90;;;;;;5106006;28;20116;-61
2023/01/29 07:10:21;;;;;;;20.20;11.20;;;1.20;99.90;;;;;;5089327;28;20663;-60
2023/01/29 07:12:46;;;;;;;27.98;12.07;;;1.20;99.90;;;;;;5096118;28;20097;-60
2023/01/29 07:15:12;;;;;;;17.23;10.00;;;1.30;99.90;;;;;;5098848;28;20039;-60
2023/01/29 07:17:38;;;;;;;24.30;13.80;;;1.30;99.90;;;;;;5106114;28;20039;-61
2023/01/29 07:20:04;;;;;;;20.98;11.18;;;1.30;99.90;;;;;;5108464;28;20502;-60
2023/01/29 07:22:31;;;;;;;23.52;12.95;;;1.30;99.90;;;;;;5080309;28;20548;-60
2023/01/29 07:24:56;;;;;;;26.83;12.88;;;1.30;99.90;;;;;;5090630;28;20036;-61
2023/01/29 07:27:22;;;;;;;21.38;11.32;;;1.30;99.90;;;;;;5101940;28;20086;-60
2023/01/29 07:29:48;;;;;;;23.05;12.15;;;1.30;99.90;;;;;;5090580;28;20044;-61
2023/01/29 07:32:13;;;;;;;22.63;11.93;;;1.40;99.90;;;;;;5103768;28;20055;-61
2023/01/29 07:34:38;;;;;;;30.23;13.68;;;1.40;99.90;;;;;;5089462;28;20396;-61
2023/01/29 07:37:05;;;;;;;25.85;12.77;;;1.40;99.90;;;;;;5098929;28;20034;-60
2023/01/29 07:39:30;;;;;;;28.30;13.73;;;1.40;99.90;;;;;;5110425;28;20038;-61
2023/01/29 07:41:56;;;;;;;23.05;12.23;;;1.40;99.90;;;;;;5089043;27;20024;-60
2023/01/29 07:44:21;;;;;;;19.55;12.35;;;1.50;99.90;;;;;;5110194;28;20035;-61
2023/01/29 07:46:47;;;;;;;23.60;12.27;;;1.50;99.90;;;;;;5095605;28;20020;-60
2023/01/29 07:49:12;;;;;;;22.42;12.27;;;1.50;99.90;;;;;;5110643;28;20480;-60
2023/01/29 07:51:38;;;;;;;24.10;12.38;;;1.50;99.90;;;;;;5089098;28;20024;-60
2023/01/29 07:54:03;;;;;;;26.85;13.45;;;1.50;99.90;;;;;;5090285;28;20025;-60
2023/01/29 07:56:29;;;;;;;24.92;12.35;;;1.50;99.90;;;;;;5103830;28;20111;-60
2023/01/29 07:58:55;;;;;;;25.65;12.73;;;1.50;99.90;;;;;;5090273;28;20103;-61
2023/01/29 08:01:20;;;;;;;22.92;12.27;;;1.50;99.90;;;;;;5105069;28;20036;-61
2023/01/29 08:03:46;;;;;;;27.50;14.10;;;1.60;99.90;;;;;;5090169;28;20015;-60
2023/01/29 08:06:11;;;;;;;23.02;13.82;;;1.60;99.90;;;;;;5103857;28;20034;-61
2023/01/29 08:08:37;;;;;;;19.00;11.07;;;1.60;99.90;;;;;;5110547;28;20380;-61
2023/01/29 08:11:04;;;;;;;23.92;12.85;;;1.60;99.90;;;;;;5088443;28;20138;-60
2023/01/29 08:13:30;;;;;;;23.92;12.73;;;1.60;99.90;;;;;;5090139;28;20016;-60
2023/01/29 08:16:03;;;;;;;25.50;13.57;;;1.60;99.90;;;;;;5109613;28;20031;-60
2023/01/29 08:18:30;;;;;;;23.85;12.45;;;1.60;99.90;;;;;;5069581;28;20123;-61
2023/01/29 08:21:02;;;;;;;26.90;13.73;;;1.70;99.90;;;;;;5109278;28;20170;-60
2023/01/29 08:23:27;;;;;;;24.67;13.45;;;1.70;99.90;;;;;;5110252;28;20047;-60
2023/01/29 08:25:53;;;;;;;24.02;12.20;;;1.80;99.90;;;;;;5090134;28;20063;-60
2023/01/29 08:28:18;;;;;;;25.38;12.55;;;1.80;99.90;;;;;;5088024;28;20042;-61
2023/01/29 08:30:44;;;;;;;23.02;12.25;;;1.80;99.90;;;;;;5106878;28;20040;-60
2023/01/29 08:33:09;;;;;;;23.58;11.63;;;1.80;99.90;;;;;;5087800;28;20055;-61
2023/01/29 08:35:35;;;;;;;24.77;12.77;;;1.80;99.90;;;;;;5109345;28;20391;-60
2023/01/29 08:38:03;;;;;;;28.30;14.95;;;1.80;99.90;;;;;;5087800;28;20123;-61
2023/01/29 08:40:30;;;;;;;24.92;13.00;;;1.80;99.90;;;;;;5097876;28;20105;-59
2023/01/29 08:43:06;;;;;;;27.45;13.43;;;1.80;99.90;;;;;;5091399;28;20035;-60
2023/01/29 08:45:37;;;;;;;24.63;12.52;;;1.80;99.90;;;;;;5102264;28;20407;-60
2023/01/29 08:48:02;;;;;;;26.42;13.55;;;1.90;99.90;;;;;;5087487;28;20122;-60
2023/01/29 08:50:33;;;;;;;27.45;13.25;;;1.90;99.90;;;;;;5089148;28;20103;-61
2023/01/29 08:53:00;;;;;;;22.67;12.13;;;1.90;99.90;;;;;;5083991;28;20043;-60
2023/01/29 08:55:26;;;;;;;24.17;12.73;;;2.00;99.90;;;;;;5109138;28;20435;-61
2023/01/29 08:57:52;;;;;;;24.95;13.43;;;2.00;99.90;;;;;;5087806;28;20087;-61
2023/01/29 09:00:17;;;;;;;31.23;17.17;;;2.00;99.90;;;;;;5108965;28;20051;-60
2023/01/29 09:02:43;;;;;;;30.27;14.38;;;2.00;99.90;;;;;;5088011;28;20436;-60
2023/01/29 09:05:09;;;;;;;29.33;15.20;;;2.00;99.90;;;;;;5094057;28;20034;-60
2023/01/29 09:07:34;;;;;;;24.83;13.02;;;2.00;99.90;;;;;;5100904;28;20027;-60
2023/01/29 09:10:00;;;;;;;28.98;14.50;;;2.00;99.90;;;;;;5089641;28;20032;-60
2023/01/29 09:12:26;;;;;;;25.80;13.80;;;2.00;99.90;;;;;;5095046;28;20067;-61
2023/01/29 09:14:51;;;;;;;25.20;13.82;;;2.00;99.90;;;;;;5107415;28;20031;-60
2023/01/29 09:17:17;;;;;;;27.15;13.27;;;2.10;99.90;;;;;;5087676;28;20123;-61
2023/01/29 09:19:42;;;;;;;25.38;12.30;;;2.10;99.90;;;;;;5108657;28;20055;-61
2023/01/29 09:22:08;;;;;;;26.35;13.30;;;2.10;99.90;;;;;;5087697;28;20028;-61
2023/01/29 09:24:34;;;;;;;23.02;12.63;;;2.10;99.90;;;;;;5108688;28;20111;-60
2023/01/29 09:27:00;;;;;;;24.80;12.63;;;2.10;99.90;;;;;;5091146;28;20172;-60
2023/01/29 09:29:25;;;;;;;23.77;12.95;;;2.10;99.90;;;;;;5099705;28;20724;-61
2023/01/29 09:31:51;;;;;;;22.73;12.52;;;2.20;99.90;;;;;;5102425;28;20111;-60
2023/01/29 09:34:16;;;;;;;24.05;11.55;;;2.20;99.90;;;;;;5092055;28;20020;-60
2023/01/29 09:36:41;;;;;;;23.55;12.40;;;2.20;99.90;;;;;;5103582;28;20054;-61
2023/01/29 09:39:07;;;;;;;21.38;11.82;;;2.20;99.90;;;;;;5091748;28;20469;-60
2023/01/29 09:41:50;;;;;;;22.95;12.38;;;2.20;99.90;;;;;;5103198;28;20052;-61
2023/01/29 09:44:53;;;;;;;25.52;12.60;;;2.20;99.90;;;;;;5092842;28;20024;-60
2023/01/29 09:47:20;;;;;;;26.52;13.75;;;2.20;99.90;;;;;;5081704;28;20099;-60
2023/01/29 09:49:49;;;;;;;27.90;14.07;;;2.20;99.90;;;;;;5112546;28;20024;-61
2023/01/29 09:52:21;;;;;;;31.70;15.25;;;2.30;99.90;;;;;;5087641;28;20111;-61
2023/01/29 09:54:54;;;;;;;33.10;15.55;;;2.30;99.90;;;;;;5113146;28;20111;-61
2023/01/29 09:57:32;;;;;;;28.85;14.63;;;2.30;99.90;;;;;;5086166;28;20044;-61
2023/01/29 09:59:58;;;;;;;33.53;16.65;;;2.40;99.90;;;;;;5071582;28;20496;-61
2023/01/29 10:02:42;;;;;;;29.70;15.05;;;2.40;99.90;;;;;;5092183;28;20024;-60
2023/01/29 10:05:34;;;;;;;26.00;13.88;;;2.40;99.90;;;;;;5076095;28;20488;-60
2023/01/29 10:08:21;;;;;;;30.42;13.95;;;2.50;99.90;;;;;;5071826;28;20071;-61
2023/01/29 10:10:46;;;;;;;23.40;12.57;;;2.40;99.90;;;;;;5079565;28;20639;-61
2023/01/29 10:13:28;;;;;;;27.05;13.65;;;2.50;99.90;;;;;;5098823;28;20028;-61
2023/01/29 10:16:09;;;;;;;22.77;11.52;;;2.50;99.90;;;;;;5088912;28;20032;-59
2023/01/29 10:18:44;;;;;;;27.38;12.95;;;2.50;99.90;;;;;;5091270;28;20376;-59
2023/01/29 10:21:46;;;;;;;25.80;13.60;;;2.50;99.90;;;;;;5085534;28;20027;-60
2023/01/29 10:24:34;;;;;;;24.98;12.38;;;2.50;99.90;;;;;;5080893;28;20044;-58
2023/01/29 10:27:00;;;;;;;30.08;13.63;;;2.60;99.90;;;;;;5077518;28;20035;-59
2023/01/29 10:29:27;;;;;;;25.10;11.90;;;2.60;99.90;;;;;;5095472;28;20028;-59
2023/01/29 10:32:03;;;;;;;26.13;14.52;;;2.60;99.90;;;;;;5111564;28;20507;-58
2023/01/29 10:34:39;;;;;;;23.73;13.00;;;2.70;99.90;;;;;;5084056;28;20039;-58
2023/01/29 10:37:17;;;;;;;30.45;15.18;;;2.70;99.90;;;;;;5091120;28;20028;-59
2023/01/29 10:39:43;;;;;;;26.42;13.32;;;2.70;99.90;;;;;;5086005;28;20515;-59
2023/01/29 10:42:19;;;;;;;23.92;13.52;;;2.70;99.90;;;;;;5109622;28;20035;-58
2023/01/29 10:45:08;;;;;;;27.60;13.70;;;2.80;99.90;;;;;;5086234;28;20028;-58
2023/01/29 10:48:05;;;;;;;24.13;13.25;;;2.80;99.90;;;;;;5071029;28;20032;-59
2023/01/29 10:50:46;;;;;;;25.60;13.27;;;2.90;99.90;;;;;;5071224;28;20036;-59
2023/01/29 10:53:29;;;;;;;22.08;12.10;;;2.90;99.90;;;;;;5072626;28;20036;-59
2023/01/29 10:56:28;;;;;;;25.15;12.82;;;2.90;99.90;;;;;;5091235;28;20031;-59
2023/01/29 10:59:04;;;;;;;25.75;13.40;;;3.00;99.90;;;;;;5078662;28;20099;-59
2023/01/29 11:01:29;;;;;;;24.95;11.93;;;3.10;99.90;;;;;;5070781;28;20093;-60
2023/01/29 11:03:58;;;;;;;23.73;12.82;;;3.10;99.90;;;;;;5092703;28;20482;-59
2023/01/29 11:06:32;;;;;;;25.27;13.40;;;3.10;99.90;;;;;;5085510;28;20028;-59
2023/01/29 11:09:04;;;;;;;26.80;13.93;;;3.10;99.90;;;;;;5090350;28;20043;-57
2023/01/29 11:11:48;;;;;;;26.67;14.65;;;3.10;99.90;;;;;;5091986;28;20074;-59
2023/01/29 11:14:20;;;;;;;22.00;11.80;;;3.10;99.90;;;;;;5084016;28;20020;-60
2023/01/29 11:16:47;;;;;;;25.65;11.93;;;3.20;99.90;;;;;;5070679;28;20047;-59
2023/01/29 11:19:14;;;;;;;23.80;12.98;;;3.30;99.90;;;;;;5093436;28;20028;-61
2023/01/29 11:21:57;;;;;;;23.17;13.13;;;3.30;99.90;;;;;;5110505;28;20096;-65
2023/01/29 11:24:24;;;;;;;23.77;12.95;;;3.40;99.90;;;;;;5088970;28;20028;-65
2023/01/29 11:26:52;;;;;;;24.60;12.88;;;3.40;99.90;;;;;;5110308;28;20031;-65
2023/01/29 11:29:32;;;;;;;22.27;12.07;;;3.50;99.90;;;;;;5088968;28;20031;-66
2023/01/29 11:31:59;;;;;;;19.08;11.05;;;3.60;99.90;;;;;;5070409;28;20508;-65
2023/01/29 11:34:31;;;;;;;32.83;14.70;;;3.70;99.90;;;;;;5091622;28;20040;-65
2023/01/29 11:37:02;;;;;;;30.25;15.90;;;3.70;99.90;;;;;;5070246;28;20033;-66
2023/01/29 11:39:31;;;;;;;24.17;12.43;;;3.90;99.90;;;;;;5085652;28;20039;-66
2023/01/29 11:42:02;;;;;;;22.17;12.30;;;4.00;99.90;;;;;;5110488;28;20454;-65
2023/01/29 11:44:40;;;;;;;23.75;12.52;;;4.10;99.90;;;;;;5088833;28;20035;-66
2023/01/29 11:47:22;;;;;;;26.45;12.90;;;4.20;99.90;;;;;;5072705;28;20601;-66
2023/01/29 11:49:56;;;;;;;28.20;13.23;;;4.30;99.90;;;;;;5089369;28;20369;-66
2023/01/29 11:52:26;;;;;;;21.60;11.43;;;4.40;99.90;;;;;;5075061;28;20031;-66
2023/01/29 11:55:01;;;;;;;19.60;11.45;;;4.40;99.90;;;;;;5090573;28;20016;-65
2023/01/29 11:57:33;;;;;;;18.23;11.38;;;4.40;99.90;;;;;;5101134;28;20048;-66
2023/01/29 12:00:06;;;;;;;23.85;11.93;;;4.40;99.90;;;;;;5109163;28;20081;-66
2023/01/29 12:02:41;;;;;;;37.38;16.65;;;4.50;99.90;;;;;;5076479;28;20081;-65
2023/01/29 12:05:21;;;;;;;27.75;14.07;;;4.50;99.90;;;;;;5078423;28;20058;-66
2023/01/29 12:07:50;;;;;;;30.25;14.55;;;4.60;99.90;;;;;;5088359;28;20504;-65
2023/01/29 12:10:34;;;;;;;24.98;12.65;;;4.60;99.90;;;;;;5110004;28;20111;-65
2023/01/29 12:13:24;;;;;;;24.90;12.43;;;4.60;99.90;;;;;;5088870;27;20109;-65
2023/01/29 12:16:09;;;;;;;24.00;12.30;;;4.60;99.90;;;;;;5068673;28;20081;-65
2023/01/29 12:18:40;;;;;;;26.08;12.57;;;4.70;99.90;;;;;;5070013;28;20041;-65
2023/01/29 12:21:16;;;;;;;25.80;12.05;;;4.70;99.90;;;;;;5084558;28;20089;-66
2023/01/29 12:23:56;;;;;;;18.30;11.63;;;4.80;99.90;;;;;;5077747;28;20028;-66
2023/01/29 12:26:50;;;;;;;21.27;10.52;;;4.90;99.90;;;;;;5076730;28;20028;-65
2023/01/29 12:29:32;;;;;;;27.13;13.85;;;5.00;99.90;;;;;;5081117;28;20123;-65
2023/01/29 12:32:19;;;;;;;21.45;11.30;;;5.00;99.50;;;;;;5094844;28;20147;-66
2023/01/29 12:34:51;;;;;;;19.70;11.68;;;5.00;99.90;;;;;;5065332;28;20060;-64
2023/01/29 12:37:31;;;;;;;30.15;15.80;;;5.00;99.90;;;;;;5069124;28;20027;-65
2023/01/29 12:39:57;;;;;;;20.65;10.70;;;5.00;99.90;;;;;;5101667;28;20036;-65
2023/01/29 12:42:23;;;;;;;17.42;11.13;;;5.00;99.90;;;;;;5087173;28;20027;-65
2023/01/29 12:45:06;;;;;;;20.00;11.77;;;5.00;99.90;;;;;;5095281;28;20028;-65
2023/01/29 12:47:40;;;;;;;24.02;13.60;;;4.90;98.70;;;;;;5072834;28;20039;-65
2023/01/29 12:50:31;;;;;;;21.77;12.07;;;4.90;97.80;;;;;;5086773;28;20027;-65
2023/01/29 12:53:01;;;;;;;22.95;11.70;;;4.90;99.70;;;;;;5102326;28;20186;-65
2023/01/29 12:55:41;;;;;;;18.17;11.68;;;4.90;98.20;;;;;;5091562;28;20125;-65
2023/01/29 12:58:19;;;;;;;19.35;10.90;;;4.90;98.60;;;;;;5066970;28;20036;-65
2023/01/29 13:00:49;;;;;;;14.20;8.25;;;5.00;99.70;;;;;;5082125;28;20058;-65
2023/01/29 13:03:43;;;;;;;15.43;9.40;;;5.00;98.60;;;;;;5086862;28;20030;-66
2023/01/29 13:06:14;;;;;;;14.95;9.40;;;4.90;97.20;;;;;;5073102;28;20708;-64
2023/01/29 13:08:45;;;;;;;15.55;8.43;;;4.90;97.80;;;;;;5086932;28;20024;-66
2023/01/29 13:11:25;;;;;;;13.73;8.43;;;4.80;98.10;;;;;;5079283;28;20060;-65
2023/01/29 13:14:12;;;;;;;15.48;8.95;;;4.80;98.50;;;;;;5068953;28;20032;-65
2023/01/29 13:16:42;;;;;;;13.80;8.30;;;4.70;98.80;;;;;;5082698;28;20086;-65
2023/01/29 13:19:26;;;;;;;15.32;8.75;;;4.60;98.00;;;;;;5088691;28;20372;-65
2023/01/29 13:21:54;;;;;;;15.32;9.45;;;4.60;99.10;;;;;;5084482;28;20534;-65
2023/01/29 13:24:23;;;;;;;14.15;8.65;;;4.60;99.60;;;;;;5101912;28;20100;-65
2023/01/29 13:26:49;;;;;;;15.45;8.60;;;4.60;99.30;;;;;;5100229;28;20035;-65
2023/01/29 13:29:27;;;;;;;14.18;8.23;;;4.60;99.50;;;;;;5096188;28;20016;-65
2023/01/29 13:31:55;;;;;;;14.23;7.40;;;4.60;99.40;;;;;;5086145;28;20040;-65